CST,Max TemperatureF,Mean TemperatureF,Min TemperatureF,Max Dew PointF,MeanDew PointF,Min DewpointF,Max Humidity, Mean Humidity, Min Humidity, Max Sea Level PressureIn, Mean Sea Level PressureIn, Min Sea Level PressureIn, Max VisibilityMiles, Mean VisibilityMiles, Min VisibilityMiles, Max Wind SpeedMPH, Mean Wind SpeedMPH, Max Gust SpeedMPH,PrecipitationIn, CloudCover, Events, WindDirDegrees
2012-12-1,75,58,41,61,51,39,100,79,57,30.30,30.25,30.20,10,5,0,13,1,,0.00,4,Fog,155
2012-12-2,78,65,52,60,55,50,100,75,50,30.32,30.25,30.20,10,5,0,12,3,15,0.00,3,Fog,176
2012-12-3,79,65,50,63,54,48,100,74,47,30.27,30.22,30.16,10,6,0,16,4,25,0.00,4,Fog,153
2012-12-4,77,70,62,67,63,61,93,79,64,30.26,30.20,30.15,10,7,1,15,4,20,0.03,5,Rain,149
2012-12-5,70,66,62,64,62,60,100,89,78,30.19,30.13,30.06,10,7,2,12,2,14,0.17,8,Rain,30
2012-12-6,77,67,57,61,58,54,97,74,50,30.06,30.02,29.96,10,6,0,14,2,,0.00,5,Fog,121
2012-12-7,74,66,58,63,60,55,100,82,64,30.01,29.96,29.91,10,6,0,8,2,12,0.00,7,Fog,128
2012-12-8,78,70,61,64,62,56,93,69,45,30.01,29.96,29.91,10,6,0,10,3,12,0.00,6,Fog,176
2012-12-9,76,69,62,68,64,61,93,81,68,30.05,29.96,29.91,10,10,8,16,7,18,0.04,7,Rain,168
2012-12-10,72,58,43,67,58,35,93,82,70,30.02,29.86,29.80,10,8,1,20,8,33,1.28,6,Rain-Thunderstorm,248
2012-12-11,43,40,37,35,33,32,85,78,70,30.21,30.12,30.02,10,10,10,13,6,16,0.00,4,,3
2012-12-12,58,45,32,34,28,15,89,54,19,30.32,30.24,30.18,10,10,9,14,4,21,0.00,1,,342
2012-12-13,63,46,28,38,32,26,92,64,36,30.38,30.32,30.27,10,10,10,7,1,,0.00,0,,9
2012-12-14,65,48,31,45,37,28,92,70,48,30.34,30.25,30.13,10,10,7,9,2,,0.00,1,,111
2012-12-15,74,61,48,59,53,45,93,75,57,30.15,30.06,29.98,10,10,10,16,5,21,0.00,3,,147
2012-12-16,75,66,57,63,59,55,97,81,64,29.97,29.91,29.83,10,8,2,16,5,23,0.53,6,Rain,176
2012-12-17,69,60,51,62,57,44,97,85,73,29.91,29.83,29.75,10,8,1,13,4,18,1.05,5,Rain-Thunderstorm,243
2012-12-18,69,54,39,48,43,37,92,65,37,30.05,29.99,29.92,10,10,10,9,2,14,0.00,0,,190
2012-12-19,76,58,40,63,51,38,93,68,43,30.06,29.97,29.87,10,10,4,18,7,23,0.01,3,Rain,147
2012-12-20,73,58,43,70,47,22,93,64,35,30.26,29.94,29.79,10,9,4,32,14,44,0.28,4,Rain,263
2012-12-21,56,44,31,29,19,11,75,47,18,30.40,30.34,30.26,10,10,10,20,7,24,0.00,0,,307
2012-12-22,65,46,27,35,28,20,92,56,19,30.43,30.34,30.25,10,10,10,8,1,,0.00,0,,280
2012-12-23,63,51,39,55,45,34,86,72,57,30.23,30.12,29.99,10,10,10,14,5,23,T,5,,162
2012-12-24,76,63,49,63,57,47,93,68,43,29.95,29.90,29.86,10,8,2,16,6,22,0.35,4,Rain,238
2012-12-25,74,61,48,65,56,43,100,82,64,29.90,29.71,29.50,10,6,0,29,8,38,1.18,7,Fog-Rain-Thunderstorm,187
2012-12-26,53,45,37,35,31,29,76,69,61,30.20,30.02,29.73,10,10,10,26,14,44,T,7,Rain,310
2012-12-27,53,44,34,36,31,28,92,70,48,30.22,30.14,30.08,10,10,10,12,2,15,0.00,4,,65
2012-12-28,55,46,37,52,47,34,100,90,79,30.06,29.85,29.76,10,6,0,28,5,41,2.10,7,Fog-Rain,13
2012-12-29,48,41,34,41,32,26,89,66,42,30.43,30.20,29.97,10,10,10,20,11,28,0.00,5,,323
2012-12-30,52,40,28,34,27,23,89,61,32,30.55,30.45,30.38,10,10,8,12,2,14,0.00,0,,18
2012-12-31,60,46,32,52,41,30,92,77,61,30.37,30.24,30.07,10,10,9,12,3,14,T,6,Rain,137